Time;durP1;ratioP1;P1;durP2;ratioP2;P2;SDS_P1;SDS_P2;PMS_P1;PMS_P2;Temp;Humidity;BMP_temperature;BMP_pressure;BME280_temperature;BME280_humidity;BME280_pressure;Samples;Min_cycle;Max_cycle;Signal;HPM_P1;HPM_P2
2022/10/05 00:00:50;;;;;;;4.68;2.45;;;14.80;97.60;;;;;;5030151;28;20120;-70
2022/10/05 00:03:15;;;;;;;7.13;2.83;;;14.80;97.60;;;;;;5030234;28;20034;-70
2022/10/05 00:05:44;;;;;;;4.75;2.85;;;14.80;97.60;;;;;;5030215;28;20360;-70
2022/10/05 00:08:14;;;;;;;5.75;2.45;;;14.80;97.40;;;;;;5030529;28;20029;-71
2022/10/05 00:10:42;;;;;;;6.53;2.78;;;14.80;97.50;;;;;;5030267;28;20042;-71
2022/10/05 00:13:23;;;;;;;10.27;2.83;;;14.80;97.90;;;;;;5062675;28;20061;-70
2022/10/05 00:15:51;;;;;;;6.45;2.75;;;14.80;97.90;;;;;;5030134;28;20050;-70
2022/10/05 00:18:20;;;;;;;7.20;2.85;;;14.80;98.10;;;;;;5034065;28;20026;-71
2022/10/05 00:20:47;;;;;;;6.35;2.53;;;14.80;97.80;;;;;;5066061;28;20026;-71
2022/10/05 00:23:18;;;;;;;7.32;2.97;;;14.80;97.70;;;;;;5034138;28;20040;-70
2022/10/05 00:25:45;;;;;;;8.30;3.13;;;14.90;97.50;;;;;;5066036;28;20033;-71
2022/10/05 00:28:29;;;;;;;7.47;2.65;;;14.80;97.50;;;;;;5032793;28;20038;-71
2022/10/05 00:30:58;;;;;;;4.95;2.72;;;14.80;97.60;;;;;;5033614;28;20095;-70
2022/10/05 00:33:26;;;;;;;3.83;2.53;;;14.80;97.40;;;;;;5033557;28;20459;-70
2022/10/05 00:35:52;;;;;;;6.93;2.83;;;14.90;97.80;;;;;;5033609;28;20431;-71
2022/10/05 00:38:18;;;;;;;5.60;2.90;;;14.90;97.60;;;;;;5032751;28;20037;-71
2022/10/05 00:40:49;;;;;;;9.48;2.97;;;14.90;97.30;;;;;;5033414;28;20128;-70
2022/10/05 00:43:25;;;;;;;5.30;2.45;;;14.90;97.20;;;;;;5033442;28;20064;-70
2022/10/05 00:46:06;;;;;;;6.00;2.67;;;14.90;97.60;;;;;;5033368;28;20041;-70
2022/10/05 00:48:38;;;;;;;12.18;3.28;;;14.90;97.60;;;;;;5032053;28;20038;-70
2022/10/05 00:51:17;;;;;;;5.90;2.90;;;14.90;97.60;;;;;;5033341;28;20426;-70
2022/10/05 00:53:56;;;;;;;7.28;2.80;;;14.90;97.50;;;;;;5033226;28;20033;-70
2022/10/05 00:56:34;;;;;;;6.07;2.60;;;14.90;97.50;;;;;;5033445;28;20067;-71
2022/10/05 00:59:30;;;;;;;5.00;2.78;;;14.90;97.30;;;;;;5033585;28;20033;-71
2022/10/05 01:02:11;;;;;;;5.05;2.58;;;14.80;97.30;;;;;;5033248;28;20132;-71
2022/10/05 01:04:44;;;;;;;6.00;2.40;;;14.90;97.40;;;;;;5032972;28;20025;-70
2022/10/05 01:07:55;;;;;;;2.72;2.28;;;14.80;97.30;;;;;;5033001;28;20132;-70
2022/10/05 01:10:39;;;;;;;7.68;2.67;;;14.90;97.70;;;;;;5032933;28;20108;-69
2022/10/05 01:13:40;;;;;;;5.32;2.58;;;14.80;97.30;;;;;;5065101;28;20384;-70
2022/10/05 01:16:12;;;;;;;10.10;3.00;;;14.90;97.40;;;;;;5030609;28;20045;-69
2022/10/05 01:19:11;;;;;;;7.28;2.28;;;14.80;97.60;;;;;;5032794;28;20115;-70
2022/10/05 01:21:45;;;;;;;7.70;2.38;;;14.80;97.60;;;;;;5032710;28;20022;-70
2022/10/05 01:24:31;;;;;;;7.50;2.53;;;14.70;97.80;;;;;;5031617;28;20036;-70
2022/10/05 01:27:30;;;;;;;8.90;3.30;;;14.80;97.90;;;;;;5032045;28;20030;-70
2022/10/05 01:30:01;;;;;;;5.47;2.25;;;14.70;97.80;;;;;;5032609;28;20034;-71
2022/10/05 01:32:43;;;;;;;5.78;2.50;;;14.70;97.90;;;;;;5032555;28;20463;-70
2022/10/05 01:35:19;;;;;;;8.50;2.55;;;14.70;98.10;;;;;;5067733;28;20408;-70
2022/10/05 01:37:57;;;;;;;6.43;2.83;;;14.70;98.00;;;;;;5032538;28;20041;-71
2022/10/05 01:41:07;;;;;;;12.18;2.50;;;14.70;98.10;;;;;;5032470;28;20472;-70
2022/10/05 01:43:53;;;;;;;8.77;2.65;;;14.70;98.10;;;;;;5020683;28;20451;-70
2022/10/05 01:46:36;;;;;;;4.35;2.38;;;14.70;98.00;;;;;;5032196;28;20053;-71
2022/10/05 01:49:28;;;;;;;5.70;2.60;;;14.80;98.00;;;;;;5032226;28;20033;-71
2022/10/05 01:51:59;;;;;;;9.75;2.58;;;14.80;97.90;;;;;;5032324;28;20379;-71
2022/10/05 01:54:47;;;;;;;11.35;2.95;;;14.80;97.90;;;;;;5032340;28;20033;-71
2022/10/05 01:57:37;;;;;;;7.70;2.95;;;14.80;98.10;;;;;;5032245;28;20048;-71
2022/10/05 02:00:15;;;;;;;12.38;2.88;;;14.80;97.90;;;;;;5032301;28;20357;-71
2022/10/05 02:02:51;;;;;;;8.63;3.10;;;14.80;98.00;;;;;;5031984;28;20439;-71
2022/10/05 02:05:21;;;;;;;7.15;2.97;;;14.90;98.00;;;;;;5032311;28;20022;-70
2022/10/05 02:08:11;;;;;;;5.22;2.40;;;14.80;97.90;;;;;;5032118;28;20053;-71
2022/10/05 02:10:45;;;;;;;6.28;3.00;;;14.90;98.10;;;;;;5050928;28;20025;-70
2022/10/05 02:13:34;;;;;;;5.75;3.05;;;14.80;97.80;;;;;;5051763;28;20111;-71
2022/10/05 02:16:09;;;;;;;8.90;2.50;;;14.80;98.00;;;;;;5051334;28;20102;-71
2022/10/05 02:18:51;;;;;;;6.20;3.03;;;14.90;97.90;;;;;;5051683;28;20064;-71
2022/10/05 02:21:18;;;;;;;10.85;2.95;;;14.80;98.10;;;;;;5051545;28;20047;-71
2022/10/05 02:23:46;;;;;;;6.57;2.60;;;14.80;98.00;;;;;;5051494;28;20447;-71
2022/10/05 02:26:12;;;;;;;7.40;2.90;;;14.80;97.90;;;;;;5051894;28;20336;-70
2022/10/05 02:28:52;;;;;;;6.30;2.70;;;14.80;98.10;;;;;;5051438;28;20127;-70
2022/10/05 02:31:30;;;;;;;21.27;3.28;;;14.80;98.50;;;;;;5051482;28;20033;-71
2022/10/05 02:34:25;;;;;;;13.43;2.88;;;14.80;98.60;;;;;;5051643;28;20033;-71
2022/10/05 02:37:09;;;;;;;6.50;2.53;;;14.70;98.80;;;;;;5051250;28;20040;-71
2022/10/05 02:40:35;;;;;;;3.22;2.35;;;14.70;98.70;;;;;;5050502;28;20036;-69
2022/10/05 02:43:22;;;;;;;10.55;2.70;;;14.60;98.80;;;;;;5050160;28;20025;-70
2022/10/05 02:45:48;;;;;;;6.78;2.70;;;14.60;98.70;;;;;;5050930;28;20391;-70
2022/10/05 02:48:37;;;;;;;8.80;3.38;;;14.60;98.80;;;;;;5051059;28;20116;-70
2022/10/05 02:51:31;;;;;;;9.80;2.92;;;14.60;98.90;;;;;;5051005;28;20458;-70
2022/10/05 02:54:18;;;;;;;5.85;2.80;;;14.60;98.80;;;;;;5050970;28;20039;-71
2022/10/05 02:57:02;;;;;;;8.18;2.88;;;14.50;98.90;;;;;;5051261;28;20029;-70
2022/10/05 02:59:39;;;;;;;5.05;2.80;;;14.50;99.10;;;;;;5050918;28;20031;-70
2022/10/05 03:02:25;;;;;;;8.80;2.58;;;14.50;99.00;;;;;;5051326;28;20489;-69
2022/10/05 03:04:57;;;;;;;5.15;2.90;;;14.50;99.10;;;;;;5050900;28;20025;-70
2022/10/05 03:07:30;;;;;;;4.53;2.50;;;14.50;99.20;;;;;;5050594;28;20374;-71
2022/10/05 03:10:17;;;;;;;9.60;3.08;;;14.50;99.50;;;;;;5050524;28;20091;-70
2022/10/05 03:12:54;;;;;;;11.40;3.20;;;14.50;99.50;;;;;;5050742;28;20033;-69
2022/10/05 03:15:53;;;;;;;4.70;2.45;;;14.50;99.50;;;;;;5050638;28;20041;-70
2022/10/05 03:18:40;;;;;;;7.95;3.08;;;14.40;99.60;;;;;;5050586;28;20317;-70
2022/10/05 03:21:43;;;;;;;6.85;2.92;;;14.30;99.50;;;;;;5050622;28;20474;-70
2022/10/05 03:24:20;;;;;;;8.07;2.90;;;14.30;99.60;;;;;;5050647;28;20133;-69
2022/10/05 03:26:59;;;;;;;17.92;3.08;;;14.30;99.60;;;;;;5050612;28;20362;-70
2022/10/05 03:30:00;;;;;;;3.67;2.28;;;14.20;99.90;;;;;;5050514;28;20035;-69
2022/10/05 03:32:37;;;;;;;6.40;3.03;;;14.20;99.80;;;;;;5049798;28;20131;-70
2022/10/05 03:35:28;;;;;;;7.10;3.33;;;14.10;99.90;;;;;;5049849;28;20028;-70
2022/10/05 03:38:16;;;;;;;6.70;3.72;;;14.10;99.80;;;;;;5049316;28;20554;-70
2022/10/05 03:40:53;;;;;;;6.30;3.30;;;14.10;99.60;;;;;;5050458;28;20037;-70
2022/10/05 03:43:36;;;;;;;10.80;3.67;;;14.10;99.70;;;;;;5050282;28;20474;-70
2022/10/05 03:46:19;;;;;;;11.43;3.63;;;14.10;99.90;;;;;;5050305;28;20041;-70
2022/10/05 03:48:59;;;;;;;7.80;3.30;;;14.10;99.50;;;;;;5050325;28;20058;-70
2022/10/05 03:51:36;;;;;;;9.80;3.28;;;14.20;99.60;;;;;;5053397;28;20029;-71
2022/10/05 03:54:09;;;;;;;4.97;3.00;;;14.10;99.60;;;;;;5054447;28;20040;-70
2022/10/05 03:56:50;;;;;;;9.77;3.90;;;14.20;99.20;;;;;;5054585;28;20473;-70
2022/10/05 03:59:24;;;;;;;9.45;3.58;;;14.10;99.70;;;;;;5054754;28;20372;-70
2022/10/05 04:02:05;;;;;;;9.88;3.55;;;14.10;99.50;;;;;;5054577;28;20029;-71
2022/10/05 04:04:45;;;;;;;8.00;3.30;;;14.10;99.70;;;;;;5054283;28;20033;-70
2022/10/05 04:07:35;;;;;;;12.75;3.65;;;14.10;99.50;;;;;;5054001;28;20036;-70
2022/10/05 04:10:04;;;;;;;6.70;3.45;;;14.10;99.80;;;;;;5053764;28;20249;-70
2022/10/05 04:12:41;;;;;;;7.40;3.20;;;14.10;99.80;;;;;;5054047;28;20041;-71
2022/10/05 04:15:28;;;;;;;6.05;3.33;;;14.10;99.60;;;;;;5053814;28;20521;-70
2022/10/05 04:18:02;;;;;;;9.90;3.67;;;14.10;99.50;;;;;;5054029;28;20128;-70
2022/10/05 04:20:35;;;;;;;5.43;3.15;;;14.10;99.70;;;;;;5053933;28;20032;-70
2022/10/05 04:23:43;;;;;;;10.68;3.65;;;14.00;99.80;;;;;;5054513;28;20036;-71
2022/10/05 04:26:14;;;;;;;9.82;3.55;;;14.10;99.80;;;;;;5053959;28;20032;-70
2022/10/05 04:29:04;;;;;;;7.18;3.40;;;14.10;99.90;;;;;;5053785;28;20029;-70
2022/10/05 04:32:11;;;;;;;8.00;3.40;;;14.20;99.90;;;;;;5053542;28;20025;-70
2022/10/05 04:35:00;;;;;;;6.65;3.20;;;14.10;99.90;;;;;;5052957;28;20487;-69
2022/10/05 04:37:36;;;;;;;8.25;3.65;;;14.10;99.70;;;;;;5053847;28;20049;-70
2022/10/05 04:40:29;;;;;;;9.60;3.55;;;14.10;99.90;;;;;;5053360;28;20044;-69
2022/10/05 04:43:02;;;;;;;7.68;3.15;;;14.10;99.90;;;;;;5053404;28;20056;-71
2022/10/05 04:45:59;;;;;;;5.82;3.45;;;14.10;99.90;;;;;;5053225;28;20041;-70
2022/10/05 04:49:01;;;;;;;9.20;3.55;;;14.10;99.90;;;;;;5051984;28;20044;-70
2022/10/05 04:52:06;;;;;;;7.90;3.78;;;14.00;99.90;;;;;;5053409;28;20087;-70
2022/10/05 04:55:00;;;;;;;13.85;4.15;;;14.00;99.90;;;;;;5041642;28;20409;-70
2022/10/05 04:57:48;;;;;;;7.32;4.00;;;14.00;99.90;;;;;;5053191;28;20102;-71
2022/10/05 05:00:37;;;;;;;13.15;3.60;;;14.00;99.90;;;;;;5052901;28;20674;-70
2022/10/05 05:03:28;;;;;;;8.52;4.03;;;14.00;99.90;;;;;;5052145;28;20072;-69
2022/10/05 05:06:47;;;;;;;6.68;3.67;;;14.10;99.90;;;;;;5052964;28;20075;-69
2022/10/05 05:09:40;;;;;;;8.18;3.75;;;14.00;99.90;;;;;;5050479;28;20092;-69
2022/10/05 05:12:39;;;;;;;6.70;3.95;;;14.00;99.90;;;;;;5049645;28;20047;-69
2022/10/05 05:15:39;;;;;;;6.22;3.97;;;14.00;99.90;;;;;;5044356;28;20341;-71
2022/10/05 05:18:45;;;;;;;6.72;4.05;;;14.00;99.90;;;;;;5034249;28;20140;-71
2022/10/05 05:21:22;;;;;;;8.05;4.03;;;14.00;99.90;;;;;;5033027;28;20029;-72
2022/10/05 05:23:53;;;;;;;7.55;4.00;;;14.00;99.90;;;;;;5032878;28;20289;-72
2022/10/05 05:26:37;;;;;;;12.18;4.60;;;14.00;99.90;;;;;;5033088;28;20029;-70
2022/10/05 05:29:35;;;;;;;5.88;4.15;;;13.90;99.90;;;;;;5033379;28;20049;-70
2022/10/05 05:32:21;;;;;;;7.95;4.38;;;14.00;99.90;;;;;;5032934;28;20191;-70
2022/10/05 05:35:04;;;;;;;11.85;4.50;;;13.90;99.90;;;;;;5013418;28;20056;-70
2022/10/05 05:37:46;;;;;;;11.43;4.28;;;14.00;99.90;;;;;;5013157;28;20030;-72
2022/10/05 05:40:29;;;;;;;5.78;3.60;;;14.00;99.90;;;;;;5013155;28;20030;-71
2022/10/05 05:43:20;;;;;;;6.43;3.40;;;14.00;99.90;;;;;;5012936;28;20196;-71
2022/10/05 05:46:01;;;;;;;12.98;4.72;;;14.00;99.90;;;;;;5010556;28;20124;-72
2022/10/05 05:48:38;;;;;;;16.20;4.40;;;14.00;99.90;;;;;;5012525;28;20033;-71
2022/10/05 05:51:16;;;;;;;8.10;4.13;;;14.00;99.90;;;;;;5012485;28;20048;-71
2022/10/05 05:53:48;;;;;;;12.07;4.50;;;14.10;99.90;;;;;;5012634;28;20022;-72
2022/10/05 05:56:18;;;;;;;5.72;3.58;;;14.10;99.90;;;;;;5011904;28;20045;-71
2022/10/05 05:58:53;;;;;;;11.25;4.70;;;14.10;99.90;;;;;;5025629;28;20530;-71
2022/10/05 06:01:39;;;;;;;9.95;4.30;;;14.10;99.90;;;;;;5032464;28;20037;-71
2022/10/05 06:04:32;;;;;;;11.23;3.88;;;14.10;99.90;;;;;;5031927;28;20096;-71
2022/10/05 06:07:02;;;;;;;9.02;4.65;;;14.10;99.90;;;;;;5031372;28;20070;-71
2022/10/05 06:09:42;;;;;;;10.50;4.57;;;14.10;99.90;;;;;;5032054;28;20034;-71
2022/10/05 06:12:22;;;;;;;7.95;4.78;;;14.20;99.90;;;;;;5032133;28;20080;-71
2022/10/05 06:15:00;;;;;;;9.05;4.82;;;14.20;99.90;;;;;;5031694;28;20100;-71
2022/10/05 06:17:36;;;;;;;9.88;4.53;;;14.20;99.90;;;;;;5032486;28;20025;-71
2022/10/05 06:20:08;;;;;;;10.73;5.53;;;14.10;99.90;;;;;;5032622;28;20010;-70
2022/10/05 06:22:54;;;;;;;10.07;4.53;;;14.10;99.90;;;;;;5031878;28;20038;-70
2022/10/05 06:25:45;;;;;;;8.30;4.75;;;14.10;99.90;;;;;;5031621;28;20080;-71
2022/10/05 06:28:14;;;;;;;12.85;4.97;;;14.20;99.90;;;;;;5031821;28;20359;-72
2022/10/05 06:30:59;;;;;;;9.65;4.47;;;14.20;99.90;;;;;;5031733;28;20374;-72
2022/10/05 06:33:39;;;;;;;9.60;4.70;;;14.20;99.90;;;;;;5031601;28;20036;-72
2022/10/05 06:36:31;;;;;;;10.65;4.72;;;14.10;99.90;;;;;;5031951;28;20025;-71
2022/10/05 06:39:11;;;;;;;11.52;4.72;;;14.10;99.90;;;;;;5031250;28;20455;-72
2022/10/05 06:41:52;;;;;;;7.32;4.05;;;14.10;99.90;;;;;;5031593;28;20075;-71
2022/10/05 06:44:43;;;;;;;15.48;5.65;;;14.10;99.90;;;;;;5032726;28;20124;-71
2022/10/05 06:47:34;;;;;;;18.10;9.07;;;14.20;99.90;;;;;;5031834;28;20119;-72
2022/10/05 06:50:03;;;;;;;11.90;5.72;;;14.20;99.90;;;;;;5031476;28;20067;-71
2022/10/05 06:52:37;;;;;;;17.17;7.22;;;14.20;99.90;;;;;;5031469;28;20029;-71
2022/10/05 06:55:34;;;;;;;18.88;7.25;;;14.30;99.90;;;;;;5030315;28;20032;-72
2022/10/05 06:58:33;;;;;;;11.02;5.53;;;14.30;99.90;;;;;;5032063;28;20029;-70
2022/10/05 07:01:17;;;;;;;9.45;5.10;;;14.40;99.90;;;;;;5031816;28;20477;-71
2022/10/05 07:04:20;;;;;;;8.20;4.55;;;14.40;99.90;;;;;;5031703;28;20033;-72
2022/10/05 07:07:10;;;;;;;13.80;6.90;;;14.50;99.90;;;;;;5030836;28;20079;-71
2022/10/05 07:09:44;;;;;;;7.97;5.07;;;14.60;99.90;;;;;;5032552;28;20371;-71
2022/10/05 07:12:29;;;;;;;12.32;5.22;;;14.60;99.90;;;;;;5031553;28;20048;-69
2022/10/05 07:15:23;;;;;;;12.05;4.70;;;14.70;99.90;;;;;;5031197;28;20045;-71
2022/10/05 07:17:48;;;;;;;12.80;5.57;;;14.70;99.90;;;;;;5031325;28;20495;-71
2022/10/05 07:20:26;;;;;;;9.15;4.63;;;14.80;99.90;;;;;;5031562;28;20033;-71
2022/10/05 07:23:01;;;;;;;9.25;4.82;;;14.90;99.90;;;;;;5051438;28;20071;-70
2022/10/05 07:25:49;;;;;;;6.13;4.43;;;14.90;99.90;;;;;;5050703;28;20462;-71
2022/10/05 07:28:15;;;;;;;;;;;15.00;99.90;;;;;;5050912;28;20037;-72
2022/10/05 07:31:05;;;;;;;10.57;4.50;;;15.10;99.90;;;;;;5051485;28;20351;-71
2022/10/05 07:34:01;;;;;;;12.27;5.25;;;15.10;99.90;;;;;;5050446;28;20037;-71
2022/10/05 07:40:03;;;;;;;13.38;5.43;;;15.20;99.90;;;;;;5051366;28;20123;-71
2022/10/05 07:42:43;;;;;;;9.75;5.68;;;15.30;99.90;;;;;;5051156;28;20348;-72
2022/10/05 07:45:21;;;;;;;7.57;4.35;;;15.30;99.90;;;;;;5051258;28;20033;-71
2022/10/05 07:47:53;;;;;;;9.02;5.82;;;15.30;99.90;;;;;;5050295;28;20025;-71
2022/10/05 07:50:27;;;;;;;9.57;5.15;;;15.30;99.90;;;;;;5051111;28;20116;-68
2022/10/05 07:53:01;;;;;;;9.32;4.90;;;15.30;99.90;;;;;;5049798;28;20027;-70
2022/10/05 07:55:35;;;;;;;10.07;4.55;;;15.40;99.90;;;;;;5050688;28;20363;-69
2022/10/05 07:58:08;;;;;;;8.23;4.28;;;15.40;99.90;;;;;;5050606;28;20025;-71
2022/10/05 08:00:46;;;;;;;12.05;5.43;;;15.40;99.90;;;;;;5049394;28;20037;-69
2022/10/05 08:03:38;;;;;;;14.05;8.05;;;15.50;99.90;;;;;;5050413;28;20025;-70
2022/10/05 08:06:09;;;;;;;12.80;6.03;;;15.50;99.90;;;;;;5049374;28;20044;-70
2022/10/05 08:08:35;;;;;;;8.65;4.57;;;15.50;99.90;;;;;;5050368;28;20025;-70
2022/10/05 08:11:16;;;;;;;11.38;5.13;;;15.50;99.90;;;;;;5050532;28;20039;-70
2022/10/05 08:14:02;;;;;;;10.93;4.88;;;15.60;99.90;;;;;;5049047;28;20040;-70
2022/10/05 08:16:34;;;;;;;11.00;5.30;;;15.60;99.90;;;;;;5050723;28;20045;-70
2022/10/05 08:19:14;;;;;;;9.48;5.20;;;15.70;99.90;;;;;;5051227;28;20064;-70
2022/10/05 08:21:46;;;;;;;10.05;5.15;;;15.80;99.90;;;;;;5050391;28;20033;-70
2022/10/05 08:24:37;;;;;;;10.00;5.65;;;15.80;99.90;;;;;;5051108;28;20044;-70
2022/10/05 08:27:22;;;;;;;9.38;5.40;;;16.00;99.90;;;;;;5050553;28;20045;-70
2022/10/05 08:30:01;;;;;;;10.10;5.53;;;16.20;99.60;;;;;;5050095;28;20029;-70
2022/10/05 08:32:42;;;;;;;12.45;5.95;;;16.40;99.50;;;;;;5050081;28;20462;-71
2022/10/05 08:35:50;;;;;;;8.85;4.82;;;16.60;99.40;;;;;;5050558;28;20624;-71
2022/10/05 08:38:22;;;;;;;10.20;5.05;;;16.90;99.20;;;;;;5033648;28;20471;-71
2022/10/05 08:41:06;;;;;;;9.05;5.03;;;17.10;98.90;;;;;;5034387;28;20231;-71
2022/10/05 08:44:05;;;;;;;6.43;4.25;;;17.20;98.50;;;;;;5033873;28;20045;-71
2022/10/05 08:47:02;;;;;;;8.68;4.80;;;17.30;98.70;;;;;;5032112;28;20041;-71
2022/10/05 08:50:04;;;;;;;9.73;5.13;;;17.40;98.50;;;;;;5034159;28;20030;-71
2022/10/05 08:52:53;;;;;;;13.10;5.45;;;17.50;98.10;;;;;;5033110;28;20225;-71
2022/10/05 08:55:50;;;;;;;9.55;5.18;;;17.50;98.00;;;;;;5034333;28;20771;-70
2022/10/05 08:58:32;;;;;;;7.75;4.68;;;17.60;97.90;;;;;;5032620;28;20075;-71
2022/10/05 09:01:13;;;;;;;8.90;4.72;;;17.60;97.60;;;;;;5033254;28;20152;-70
2022/10/05 09:03:54;;;;;;;14.77;5.00;;;17.60;97.70;;;;;;5065787;28;20077;-71
2022/10/05 09:06:41;;;;;;;11.48;5.00;;;17.70;97.60;;;;;;5033773;28;20378;-71
2022/10/05 09:09:41;;;;;;;9.52;4.75;;;17.60;97.50;;;;;;5033195;28;20375;-71
2022/10/05 09:12:45;;;;;;;9.80;5.25;;;17.50;97.50;;;;;;5033824;28;20048;-71
2022/10/05 09:15:32;;;;;;;10.50;6.03;;;17.50;97.60;;;;;;5024843;28;20425;-71
2022/10/05 09:18:22;;;;;;;9.57;4.83;;;17.50;97.60;;;;;;5032136;28;20118;-70
2022/10/05 09:21:01;;;;;;;7.47;4.35;;;17.40;97.40;;;;;;5032408;28;20026;-71
2022/10/05 09:24:03;;;;;;;6.95;4.10;;;17.50;97.60;;;;;;5033069;28;20025;-70
2022/10/05 09:26:28;;;;;;;8.18;4.25;;;17.50;97.40;;;;;;5033511;28;20447;-72
2022/10/05 09:29:42;;;;;;;11.75;5.07;;;17.40;97.40;;;;;;5033619;28;20031;-72
2022/10/05 09:32:31;;;;;;;8.27;4.55;;;17.40;97.50;;;;;;5050935;28;20037;-71
2022/10/05 09:35:33;;;;;;;10.45;4.70;;;17.40;97.50;;;;;;5068497;28;20433;-72
2022/10/05 09:38:06;;;;;;;6.50;3.67;;;17.30;97.50;;;;;;5033294;28;20200;-74
2022/10/05 09:40:59;;;;;;;7.93;4.50;;;17.40;97.60;;;;;;5032609;28;20040;-73
2022/10/05 09:43:50;;;;;;;7.40;4.18;;;17.40;97.50;;;;;;5032649;28;20029;-72
2022/10/05 09:46:25;;;;;;;10.70;4.13;;;17.40;97.50;;;;;;5028191;28;20559;-72
2022/10/05 09:49:30;;;;;;;8.45;4.65;;;17.40;97.60;;;;;;5031910;28;20033;-74
2022/10/05 09:52:10;;;;;;;7.38;3.88;;;17.50;97.60;;;;;;5044050;28;20116;-74
2022/10/05 09:55:00;;;;;;;6.57;4.05;;;17.50;97.50;;;;;;5052290;28;20030;-72
2022/10/05 09:57:38;;;;;;;7.13;3.55;;;17.20;97.40;;;;;;5052276;28;20029;-72
2022/10/05 10:00:42;;;;;;;;;;;17.30;97.40;;;;;;5051515;28;20094;-72
2022/10/05 10:03:42;;;;;;;7.93;3.95;;;17.30;97.40;;;;;;5069535;28;19924;-71
2022/10/05 10:06:19;;;;;;;7.57;3.55;;;17.30;97.10;;;;;;5054290;28;20033;-71
2022/10/05 10:09:19;;;;;;;8.67;4.50;;;17.30;97.20;;;;;;5050585;28;20028;-72
2022/10/05 10:12:12;;;;;;;8.52;3.65;;;17.30;97.10;;;;;;5051994;28;20053;-72
2022/10/05 10:15:05;;;;;;;7.03;3.60;;;17.30;97.20;;;;;;5051511;28;20041;-73
2022/10/05 10:18:09;;;;;;;12.80;3.67;;;17.40;97.10;;;;;;5051824;28;20025;-73
2022/10/05 10:21:02;;;;;;;6.10;2.88;;;17.30;97.00;;;;;;5051787;28;20025;-73
2022/10/05 10:23:46;;;;;;;5.07;2.75;;;17.30;97.00;;;;;;5052180;28;20021;-71
2022/10/05 10:26:50;;;;;;;9.98;3.85;;;17.40;97.30;;;;;;5052262;28;20117;-72
2022/10/05 10:29:31;;;;;;;8.20;3.00;;;17.40;96.90;;;;;;5051724;28;20043;-72
2022/10/05 10:32:18;;;;;;;7.95;3.17;;;17.40;96.80;;;;;;5052095;28;20032;-72
2022/10/05 10:34:59;;;;;;;5.30;3.60;;;17.40;96.80;;;;;;5032311;28;20561;-71
2022/10/05 10:37:37;;;;;;;3.88;2.83;;;17.50;96.80;;;;;;5031727;28;20034;-71
2022/10/05 10:40:37;;;;;;;3.90;2.85;;;17.40;96.60;;;;;;5031631;28;20038;-73
2022/10/05 10:43:31;;;;;;;4.40;2.80;;;17.50;96.70;;;;;;5031540;28;20033;-71
2022/10/05 10:46:17;;;;;;;5.85;2.92;;;17.40;96.60;;;;;;5031277;28;20033;-71
2022/10/05 10:49:31;;;;;;;3.25;2.78;;;17.30;96.80;;;;;;5031310;28;20036;-72
2022/10/05 10:52:15;;;;;;;6.03;2.45;;;17.40;96.90;;;;;;5029007;28;20026;-70
2022/10/05 10:55:22;;;;;;;5.57;3.03;;;17.40;96.70;;;;;;5031179;28;20032;-72
2022/10/05 10:58:19;;;;;;;9.05;3.45;;;17.50;96.80;;;;;;5031566;28;20091;-71
2022/10/05 11:01:22;;;;;;;12.25;3.78;;;17.50;96.50;;;;;;5030823;28;20413;-72
2022/10/05 11:04:16;;;;;;;8.85;3.35;;;17.50;96.70;;;;;;5030074;28;20128;-71
2022/10/05 11:07:01;;;;;;;7.30;3.40;;;17.50;96.60;;;;;;5031114;28;20308;-72
2022/10/05 11:09:41;;;;;;;6.45;3.35;;;17.60;96.50;;;;;;5030001;28;20033;-71
2022/10/05 11:12:45;;;;;;;5.60;3.17;;;17.80;96.60;;;;;;5031790;28;20039;-71
2022/10/05 11:15:49;;;;;;;7.07;3.35;;;17.80;96.00;;;;;;5030905;28;20056;-71
2022/10/05 11:18:46;;;;;;;7.13;3.08;;;18.20;95.90;;;;;;5008942;28;20056;-71
2022/10/05 11:21:33;;;;;;;7.97;3.03;;;18.30;95.80;;;;;;5030845;28;20432;-71
2022/10/05 11:24:10;;;;;;;6.47;2.90;;;18.50;95.70;;;;;;5030756;28;20045;-72
2022/10/05 11:26:54;;;;;;;4.93;2.60;;;18.60;95.40;;;;;;5030764;28;20052;-72
2022/10/05 11:29:40;;;;;;;9.30;2.75;;;18.70;95.20;;;;;;5030975;28;20028;-72
2022/10/05 11:32:33;;;;;;;8.18;2.95;;;18.80;95.30;;;;;;5030055;28;20356;-72
2022/10/05 11:35:09;;;;;;;8.48;2.95;;;18.80;95.10;;;;;;5050825;28;20533;-72
2022/10/05 11:37:54;;;;;;;8.85;4.60;;;18.90;95.10;;;;;;5049778;28;20085;-72
2022/10/05 11:40:32;;;;;;;4.30;2.28;;;18.90;94.80;;;;;;5050317;28;20029;-72
2022/10/05 11:43:15;;;;;;;5.70;2.42;;;18.90;94.90;;;;;;5049482;28;20391;-72
2022/10/05 11:45:47;;;;;;;4.18;2.00;;;19.00;94.70;;;;;;5049518;28;20037;-72
2022/10/05 11:48:30;;;;;;;3.50;2.08;;;19.20;95.00;;;;;;5050438;28;20108;-72
2022/10/05 11:51:19;;;;;;;7.90;3.30;;;19.20;94.40;;;;;;5050746;28;20379;-71
2022/10/05 11:54:16;;;;;;;4.03;2.90;;;19.30;94.40;;;;;;5050689;28;20108;-71
2022/10/05 11:56:55;;;;;;;8.50;2.17;;;19.20;94.20;;;;;;5050601;28;20033;-71
2022/10/05 11:59:33;;;;;;;5.50;2.30;;;19.40;94.30;;;;;;5050532;28;20032;-71
2022/10/05 12:02:31;;;;;;;5.20;2.42;;;19.60;94.20;;;;;;5049629;28;20039;-71
2022/10/05 12:05:21;;;;;;;6.53;2.25;;;19.60;93.80;;;;;;5050411;28;20243;-71
2022/10/05 12:07:52;;;;;;;9.25;2.58;;;19.70;94.00;;;;;;5050379;28;20029;-70
2022/10/05 12:10:40;;;;;;;6.15;2.60;;;19.80;93.70;;;;;;5050272;28;20086;-71
2022/10/05 12:13:44;;;;;;;4.47;2.38;;;19.90;93.70;;;;;;5053066;28;20040;-71
2022/10/05 12:16:10;;;;;;;3.10;2.40;;;20.10;93.70;;;;;;5051967;28;20068;-71
2022/10/05 12:18:43;;;;;;;3.90;2.55;;;20.20;93.40;;;;;;5052955;28;20490;-71
2022/10/05 12:21:35;;;;;;;3.25;2.25;;;20.10;93.20;;;;;;5054278;28;20060;-71
2022/10/05 12:24:18;;;;;;;6.15;2.38;;;20.10;93.00;;;;;;5054128;28;20029;-71
2022/10/05 12:27:10;;;;;;;5.35;2.50;;;20.10;93.00;;;;;;5053914;28;20114;-70
2022/10/05 12:29:46;;;;;;;8.50;2.75;;;20.10;92.80;;;;;;5050639;28;20492;-71
2022/10/05 12:32:24;;;;;;;3.08;2.20;;;20.10;92.80;;;;;;5054382;28;20385;-71
2022/10/05 12:35:05;;;;;;;;;;;20.20;93.10;;;;;;5053210;28;20041;-70
2022/10/05 12:37:45;;;;;;;4.13;2.55;;;20.20;92.70;;;;;;5052485;28;19958;-70
2022/10/05 12:40:21;;;;;;;5.13;2.75;;;20.10;92.60;;;;;;5053955;28;20455;-71
2022/10/05 12:43:00;;;;;;;5.60;2.72;;;20.10;92.60;;;;;;5053756;28;20025;-71
2022/10/05 12:45:48;;;;;;;7.70;2.50;;;20.10;92.50;;;;;;5053625;28;20033;-71
2022/10/05 12:48:28;;;;;;;8.82;2.88;;;20.10;92.50;;;;;;5053368;28;20032;-70
2022/10/05 12:51:15;;;;;;;4.28;2.58;;;20.10;92.70;;;;;;5053226;28;20025;-70
2022/10/05 12:53:54;;;;;;;3.53;2.30;;;20.10;92.30;;;;;;5053423;28;20474;-71
2022/10/05 12:57:03;;;;;;;4.55;2.05;;;20.20;92.60;;;;;;5053499;28;20036;-71
2022/10/05 12:59:41;;;;;;;6.60;2.30;;;20.10;92.50;;;;;;5053400;28;20024;-72
2022/10/05 13:02:22;;;;;;;7.97;2.72;;;20.10;92.60;;;;;;5053666;28;20029;-74
2022/10/05 13:04:57;;;;;;;4.70;2.40;;;20.10;92.50;;;;;;5085913;28;20074;-71
2022/10/05 13:07:55;;;;;;;4.75;2.30;;;20.20;92.40;;;;;;5051945;28;20471;-71
2022/10/05 13:10:47;;;;;;;3.33;2.05;;;20.20;92.30;;;;;;5029507;28;20048;-72
2022/10/05 13:13:19;;;;;;;5.43;2.30;;;20.10;92.20;;;;;;5051958;28;20035;-71
2022/10/05 13:15:54;;;;;;;2.25;1.75;;;20.20;92.60;;;;;;5053200;28;20388;-71
2022/10/05 13:18:53;;;;;;;6.10;2.25;;;20.10;92.30;;;;;;5052984;28;20033;-70
2022/10/05 13:21:38;;;;;;;4.82;1.80;;;20.10;92.40;;;;;;5052815;28;20098;-70
2022/10/05 13:24:20;;;;;;;2.83;1.35;;;20.10;92.40;;;;;;5051942;28;20319;-70
2022/10/05 13:27:12;;;;;;;2.88;2.15;;;20.10;92.50;;;;;;5052827;28;20044;-72
2022/10/05 13:29:46;;;;;;;2.05;1.48;;;20.00;92.20;;;;;;5052888;28;22182;-71
2022/10/05 13:32:23;;;;;;;5.68;1.55;;;20.00;92.40;;;;;;5053454;28;20092;-70
2022/10/05 13:35:23;;;;;;;2.35;1.67;;;20.00;92.30;;;;;;5051831;28;20098;-72
2022/10/05 13:38:10;;;;;;;6.07;2.00;;;19.80;92.20;;;;;;5052634;28;20055;-71
2022/10/05 13:41:23;;;;;;;8.40;2.10;;;19.80;92.20;;;;;;5051437;28;20087;-71
2022/10/05 13:44:31;;;;;;;4.40;1.77;;;19.80;92.10;;;;;;5046106;28;20045;-70
2022/10/05 13:47:07;;;;;;;4.97;1.90;;;19.80;92.00;;;;;;5052673;28;20056;-71
2022/10/05 13:49:56;;;;;;;5.47;1.83;;;19.80;92.10;;;;;;5052508;28;20096;-71
2022/10/05 13:52:34;;;;;;;4.50;2.00;;;19.80;92.10;;;;;;5052286;28;20036;-71
2022/10/05 13:55:27;;;;;;;3.00;1.30;;;19.70;92.00;;;;;;5051133;28;20466;-72
2022/10/05 13:57:56;;;;;;;3.92;1.70;;;19.70;92.10;;;;;;5052218;28;20085;-70
2022/10/05 14:00:24;;;;;;;6.95;1.90;;;19.70;92.30;;;;;;5052244;28;20413;-71
2022/10/05 14:02:53;;;;;;;3.75;1.40;;;19.70;92.20;;;;;;5052208;28;20037;-71
2022/10/05 14:05:23;;;;;;;3.05;1.67;;;19.60;92.10;;;;;;5052081;28;20025;-73
2022/10/05 14:08:01;;;;;;;8.57;1.65;;;19.60;91.90;;;;;;5051281;28;20339;-71
2022/10/05 14:10:46;;;;;;;2.22;1.38;;;19.60;91.90;;;;;;5051868;28;20025;-71
2022/10/05 14:13:32;;;;;;;2.22;1.50;;;19.60;92.00;;;;;;5051970;28;20085;-70
2022/10/05 14:16:19;;;;;;;5.00;1.95;;;19.60;92.00;;;;;;5051748;28;20069;-71